Terminal Aerodrome Forecast
Issued by NWS Hastings, NE

Home | Current Version | Previous Version | Text Only | Print | Product List | Glossary On
Versions: 1 2 3 4 5 6 7 8 9 10 11 12 13 14 15 16 17 18 19 20 21 22 23 24 25 26 27 28 29 30 31 32 33 34
626
FTUS45 KGID 151720
TAFEAR
TAF
KEAR 151720Z 1518/1618 VRB05KT P6SM FEW250
     FM160900 19007KT P6SM FEW100 FEW250 WS010/22040KT
     FM161400 19011KT P6SM FEW090 SCT250=

USA.gov is the U.S. government's official web portal to all federal, state and local government web resources and services.